sensor_id;sensor_type;location;lat;lon;timestamp;temperature;humidity
47813;DHT22;34221;45.296;9.516;2023-12-07T00:00:00;2.80;99.90
47813;DHT22;34221;45.296;9.516;2023-12-07T00:00:15;2.80;99.90
47813;DHT22;34221;45.296;9.516;2023-12-07T00:00:30;2.80;99.90
47813;DHT22;34221;45.296;9.516;2023-12-07T00:00:44;2.80;99.90
47813;DHT22;34221;45.296;9.516;2023-12-07T00:00:59;2.80;99.90
47813;DHT22;34221;45.296;9.516;2023-12-07T00:01:14;2.80;99.90
47813;DHT22;34221;45.296;9.516;2023-12-07T00:01:29;2.70;99.90
47813;DHT22;34221;45.296;9.516;2023-12-07T00:01:43;2.70;99.90
47813;DHT22;34221;45.296;9.516;2023-12-07T00:01:58;2.80;99.90
47813;DHT22;34221;45.296;9.516;2023-12-07T00:02:13;2.70;99.90
47813;DHT22;34221;45.296;9.516;2023-12-07T00:02:28;2.70;99.90
47813;DHT22;34221;45.296;9.516;2023-12-07T00:02:42;2.70;99.90
47813;DHT22;34221;45.296;9.516;2023-12-07T00:02:57;2.70;99.90
47813;DHT22;34221;45.296;9.516;2023-12-07T00:03:13;2.70;99.90
47813;DHT22;34221;45.296;9.516;2023-12-07T00:03:30;2.60;99.90
47813;DHT22;34221;45.296;9.516;2023-12-07T00:03:45;2.70;99.90
47813;DHT22;34221;45.296;9.516;2023-12-07T00:04:01;2.70;99.90
47813;DHT22;34221;45.296;9.516;2023-12-07T00:04:15;2.60;99.90
47813;DHT22;34221;45.296;9.516;2023-12-07T00:04:30;2.60;99.90
47813;DHT22;34221;45.296;9.516;2023-12-07T00:04:45;2.60;99.90
47813;DHT22;34221;45.296;9.516;2023-12-07T00:04:59;2.60;99.90
47813;DHT22;34221;45.296;9.516;2023-12-07T00:05:14;2.60;99.90
47813;DHT22;34221;45.296;9.516;2023-12-07T00:05:29;2.60;99.90
47813;DHT22;34221;45.296;9.516;2023-12-07T00:05:44;2.60;99.90
47813;DHT22;34221;45.296;9.516;2023-12-07T00:05:58;2.60;99.90
47813;DHT22;34221;45.296;9.516;2023-12-07T00:06:13;2.60;99.90
47813;DHT22;34221;45.296;9.516;2023-12-07T00:06:28;2.60;99.90
47813;DHT22;34221;45.296;9.516;2023-12-07T00:06:43;2.60;99.90
47813;DHT22;34221;45.296;9.516;2023-12-07T00:06:57;2.60;99.90
47813;DHT22;34221;45.296;9.516;2023-12-07T00:07:12;2.60;99.90
47813;DHT22;34221;45.296;9.516;2023-12-07T00:07:27;2.60;99.90
47813;DHT22;34221;45.296;9.516;2023-12-07T00:07:42;2.60;99.90
47813;DHT22;34221;45.296;9.516;2023-12-07T00:07:56;2.60;99.90
47813;DHT22;34221;45.296;9.516;2023-12-07T00:08:11;2.60;99.90
47813;DHT22;34221;45.296;9.516;2023-12-07T00:08:26;2.60;99.90
47813;DHT22;34221;45.296;9.516;2023-12-07T00:08:41;2.60;99.90
47813;DHT22;34221;45.296;9.516;2023-12-07T00:08:55;2.60;99.90
47813;DHT22;34221;45.296;9.516;2023-12-07T00:09:10;2.60;99.90
47813;DHT22;34221;45.296;9.516;2023-12-07T00:09:25;2.60;99.90
47813;DHT22;34221;45.296;9.516;2023-12-07T00:09:40;2.60;99.90
47813;DHT22;34221;45.296;9.516;2023-12-07T00:09:55;2.60;99.90
47813;DHT22;34221;45.296;9.516;2023-12-07T00:10:09;2.60;99.90
47813;DHT22;34221;45.296;9.516;2023-12-07T00:10:24;2.60;99.90
47813;DHT22;34221;45.296;9.516;2023-12-07T00:10:39;2.50;99.90
47813;DHT22;34221;45.296;9.516;2023-12-07T00:10:54;2.60;99.90
47813;DHT22;34221;45.296;9.516;2023-12-07T00:11:09;2.60;99.90
47813;DHT22;34221;45.296;9.516;2023-12-07T00:11:24;2.60;99.90
47813;DHT22;34221;45.296;9.516;2023-12-07T00:11:38;2.60;99.90
47813;DHT22;34221;45.296;9.516;2023-12-07T00:11:53;2.60;99.90
47813;DHT22;34221;45.296;9.516;2023-12-07T00:12:08;2.60;99.90
47813;DHT22;34221;45.296;9.516;2023-12-07T00:12:23;2.60;99.90
47813;DHT22;34221;45.296;9.516;2023-12-07T00:12:37;2.60;99.90
47813;DHT22;34221;45.296;9.516;2023-12-07T00:12:52;2.60;99.90
47813;DHT22;34221;45.296;9.516;2023-12-07T00:13:07;2.60;99.90
47813;DHT22;34221;45.296;9.516;2023-12-07T00:13:21;2.60;99.90
47813;DHT22;34221;45.296;9.516;2023-12-07T00:13:36;2.60;99.90
47813;DHT22;34221;45.296;9.516;2023-12-07T00:13:51;2.60;99.90
47813;DHT22;34221;45.296;9.516;2023-12-07T00:14:06;2.60;99.90
47813;DHT22;34221;45.296;9.516;2023-12-07T00:14:20;2.60;99.90
47813;DHT22;34221;45.296;9.516;2023-12-07T00:14:35;2.60;99.90
47813;DHT22;34221;45.296;9.516;2023-12-07T00:14:50;2.60;99.90
47813;DHT22;34221;45.296;9.516;2023-12-07T00:15:06;2.60;99.90
47813;DHT22;34221;45.296;9.516;2023-12-07T00:15:21;2.60;99.90
47813;DHT22;34221;45.296;9.516;2023-12-07T00:15:35;2.60;99.90
47813;DHT22;34221;45.296;9.516;2023-12-07T00:15:50;2.60;99.90
47813;DHT22;34221;45.296;9.516;2023-12-07T00:16:05;2.60;99.90
47813;DHT22;34221;45.296;9.516;2023-12-07T00:16:20;2.60;99.90
47813;DHT22;34221;45.296;9.516;2023-12-07T00:16:34;2.60;99.90
47813;DHT22;34221;45.296;9.516;2023-12-07T00:16:49;2.60;99.90
47813;DHT22;34221;45.296;9.516;2023-12-07T00:17:04;2.60;99.90
47813;DHT22;34221;45.296;9.516;2023-12-07T00:17:18;2.60;99.90
47813;DHT22;34221;45.296;9.516;2023-12-07T00:17:33;2.60;99.90
47813;DHT22;34221;45.296;9.516;2023-12-07T00:17:48;2.60;99.90
47813;DHT22;34221;45.296;9.516;2023-12-07T00:18:03;2.60;99.90
47813;DHT22;34221;45.296;9.516;2023-12-07T00:18:18;2.60;99.90
47813;DHT22;34221;45.296;9.516;2023-12-07T00:18:33;2.60;99.90
47813;DHT22;34221;45.296;9.516;2023-12-07T00:18:48;2.60;99.90
47813;DHT22;34221;45.296;9.516;2023-12-07T00:19:03;2.70;99.90
47813;DHT22;34221;45.296;9.516;2023-12-07T00:19:18;2.70;99.90
47813;DHT22;34221;45.296;9.516;2023-12-07T00:19:33;2.70;99.90
47813;DHT22;34221;45.296;9.516;2023-12-07T00:19:50;2.70;99.90
47813;DHT22;34221;45.296;9.516;2023-12-07T00:20:05;2.70;99.90
47813;DHT22;34221;45.296;9.516;2023-12-07T00:20:20;2.70;99.90
47813;DHT22;34221;45.296;9.516;2023-12-07T00:20:35;2.70;99.90
47813;DHT22;34221;45.296;9.516;2023-12-07T00:20:50;2.70;99.90
47813;DHT22;34221;45.296;9.516;2023-12-07T00:21:04;2.70;99.90
47813;DHT22;34221;45.296;9.516;2023-12-07T00:21:19;2.70;99.90
47813;DHT22;34221;45.296;9.516;2023-12-07T00:21:34;2.70;99.90
47813;DHT22;34221;45.296;9.516;2023-12-07T00:21:49;2.70;99.90
47813;DHT22;34221;45.296;9.516;2023-12-07T00:22:04;2.70;99.90
47813;DHT22;34221;45.296;9.516;2023-12-07T00:22:20;2.80;99.90
47813;DHT22;34221;45.296;9.516;2023-12-07T00:22:35;2.80;99.90
47813;DHT22;34221;45.296;9.516;2023-12-07T00:22:49;2.70;99.90
47813;DHT22;34221;45.296;9.516;2023-12-07T00:23:04;2.80;99.90
47813;DHT22;34221;45.296;9.516;2023-12-07T00:23:19;2.70;99.90
47813;DHT22;34221;45.296;9.516;2023-12-07T00:23:34;2.80;99.90
47813;DHT22;34221;45.296;9.516;2023-12-07T00:23:48;2.80;99.90
47813;DHT22;34221;45.296;9.516;2023-12-07T00:24:03;2.80;99.90
47813;DHT22;34221;45.296;9.516;2023-12-07T00:24:18;2.80;99.90
47813;DHT22;34221;45.296;9.516;2023-12-07T00:24:33;2.80;99.90
47813;DHT22;34221;45.296;9.516;2023-12-07T00:24:48;2.80;99.90
47813;DHT22;34221;45.296;9.516;2023-12-07T00:25:03;2.80;99.90
47813;DHT22;34221;45.296;9.516;2023-12-07T00:25:18;2.80;99.90
47813;DHT22;34221;45.296;9.516;2023-12-07T00:25:32;2.80;99.90
47813;DHT22;34221;45.296;9.516;2023-12-07T00:25:48;2.70;99.90
47813;DHT22;34221;45.296;9.516;2023-12-07T00:26:04;2.80;99.90
47813;DHT22;34221;45.296;9.516;2023-12-07T00:26:18;2.80;99.90
47813;DHT22;34221;45.296;9.516;2023-12-07T00:26:33;2.80;99.90
47813;DHT22;34221;45.296;9.516;2023-12-07T00:26:48;2.80;99.90
47813;DHT22;34221;45.296;9.516;2023-12-07T00:27:23;2.80;99.90
47813;DHT22;34221;45.296;9.516;2023-12-07T00:27:38;2.80;99.90
47813;DHT22;34221;45.296;9.516;2023-12-07T00:27:53;2.80;99.90
47813;DHT22;34221;45.296;9.516;2023-12-07T00:28:08;2.80;99.90
47813;DHT22;34221;45.296;9.516;2023-12-07T00:28:22;2.80;99.90
47813;DHT22;34221;45.296;9.516;2023-12-07T00:28:37;2.80;99.90
47813;DHT22;34221;45.296;9.516;2023-12-07T00:28:52;2.80;99.90
47813;DHT22;34221;45.296;9.516;2023-12-07T00:29:07;2.80;99.90
47813;DHT22;34221;45.296;9.516;2023-12-07T00:29:21;2.80;99.90
47813;DHT22;34221;45.296;9.516;2023-12-07T00:29:39;2.80;99.90
47813;DHT22;34221;45.296;9.516;2023-12-07T00:29:55;2.80;99.90
47813;DHT22;34221;45.296;9.516;2023-12-07T00:30:10;2.80;99.90
47813;DHT22;34221;45.296;9.516;2023-12-07T00:30:24;2.80;99.90
47813;DHT22;34221;45.296;9.516;2023-12-07T00:30:40;2.80;99.90
47813;DHT22;34221;45.296;9.516;2023-12-07T00:30:57;2.80;99.90
47813;DHT22;34221;45.296;9.516;2023-12-07T00:31:11;2.80;99.90
47813;DHT22;34221;45.296;9.516;2023-12-07T00:31:26;2.80;99.90
47813;DHT22;34221;45.296;9.516;2023-12-07T00:31:41;2.80;99.90
47813;DHT22;34221;45.296;9.516;2023-12-07T00:31:56;2.80;99.90
47813;DHT22;34221;45.296;9.516;2023-12-07T00:32:11;2.80;99.90
47813;DHT22;34221;45.296;9.516;2023-12-07T00:32:25;2.80;99.90
47813;DHT22;34221;45.296;9.516;2023-12-07T00:32:41;2.80;99.90
47813;DHT22;34221;45.296;9.516;2023-12-07T00:32:58;2.80;99.90
47813;DHT22;34221;45.296;9.516;2023-12-07T00:33:13;2.80;99.90
47813;DHT22;34221;45.296;9.516;2023-12-07T00:33:28;2.70;99.90
47813;DHT22;34221;45.296;9.516;2023-12-07T00:33:43;2.80;99.90
47813;DHT22;34221;45.296;9.516;2023-12-07T00:34:00;2.70;99.90
47813;DHT22;34221;45.296;9.516;2023-12-07T00:34:15;2.70;99.90
47813;DHT22;34221;45.296;9.516;2023-12-07T00:34:31;2.70;99.90
47813;DHT22;34221;45.296;9.516;2023-12-07T00:34:46;2.80;99.90
47813;DHT22;34221;45.296;9.516;2023-12-07T00:35:01;2.80;99.90
47813;DHT22;34221;45.296;9.516;2023-12-07T00:35:15;2.70;99.90
47813;DHT22;34221;45.296;9.516;2023-12-07T00:35:30;2.80;99.90
47813;DHT22;34221;45.296;9.516;2023-12-07T00:35:45;2.80;99.90
47813;DHT22;34221;45.296;9.516;2023-12-07T00:36:00;2.80;99.90
47813;DHT22;34221;45.296;9.516;2023-12-07T00:36:15;2.80;99.90
47813;DHT22;34221;45.296;9.516;2023-12-07T00:36:29;2.80;99.90
47813;DHT22;34221;45.296;9.516;2023-12-07T00:36:44;2.80;99.90
47813;DHT22;34221;45.296;9.516;2023-12-07T00:36:59;2.80;99.90
47813;DHT22;34221;45.296;9.516;2023-12-07T00:37:13;2.80;99.90
47813;DHT22;34221;45.296;9.516;2023-12-07T00:37:28;2.80;99.90
47813;DHT22;34221;45.296;9.516;2023-12-07T00:37:43;2.80;99.90
47813;DHT22;34221;45.296;9.516;2023-12-07T00:37:57;2.80;99.90
47813;DHT22;34221;45.296;9.516;2023-12-07T00:38:12;2.80;99.90
47813;DHT22;34221;45.296;9.516;2023-12-07T00:38:27;2.80;99.90
47813;DHT22;34221;45.296;9.516;2023-12-07T00:38:42;2.80;99.90
47813;DHT22;34221;45.296;9.516;2023-12-07T00:38:56;2.70;99.90
47813;DHT22;34221;45.296;9.516;2023-12-07T00:39:11;2.80;99.90
47813;DHT22;34221;45.296;9.516;2023-12-07T00:39:26;2.80;99.90
47813;DHT22;34221;45.296;9.516;2023-12-07T00:39:41;2.80;99.90
47813;DHT22;34221;45.296;9.516;2023-12-07T00:39:56;2.70;99.90
47813;DHT22;34221;45.296;9.516;2023-12-07T00:40:11;2.80;99.90
47813;DHT22;34221;45.296;9.516;2023-12-07T00:40:27;2.80;99.90
47813;DHT22;34221;45.296;9.516;2023-12-07T00:40:41;2.70;99.90
47813;DHT22;34221;45.296;9.516;2023-12-07T00:40:56;2.80;99.90
47813;DHT22;34221;45.296;9.516;2023-12-07T00:41:11;2.80;99.90
47813;DHT22;34221;45.296;9.516;2023-12-07T00:41:25;2.70;99.90
47813;DHT22;34221;45.296;9.516;2023-12-07T00:41:40;2.70;99.90
47813;DHT22;34221;45.296;9.516;2023-12-07T00:41:55;2.70;99.90
47813;DHT22;34221;45.296;9.516;2023-12-07T00:42:10;2.70;99.90
47813;DHT22;34221;45.296;9.516;2023-12-07T00:42:25;2.70;99.90
47813;DHT22;34221;45.296;9.516;2023-12-07T00:42:40;2.70;99.90
47813;DHT22;34221;45.296;9.516;2023-12-07T00:42:55;2.70;99.90
47813;DHT22;34221;45.296;9.516;2023-12-07T00:43:09;2.70;99.90
47813;DHT22;34221;45.296;9.516;2023-12-07T00:43:24;2.70;99.90
47813;DHT22;34221;45.296;9.516;2023-12-07T00:43:40;2.70;99.90
47813;DHT22;34221;45.296;9.516;2023-12-07T00:43:55;2.70;99.90
47813;DHT22;34221;45.296;9.516;2023-12-07T00:44:09;2.70;99.90
47813;DHT22;34221;45.296;9.516;2023-12-07T00:44:24;2.70;99.90
47813;DHT22;34221;45.296;9.516;2023-12-07T00:44:40;2.70;99.90
47813;DHT22;34221;45.296;9.516;2023-12-07T00:44:55;2.70;99.90
47813;DHT22;34221;45.296;9.516;2023-12-07T00:45:11;2.70;99.90
47813;DHT22;34221;45.296;9.516;2023-12-07T00:45:26;2.70;99.90
47813;DHT22;34221;45.296;9.516;2023-12-07T00:45:41;2.70;99.90
47813;DHT22;34221;45.296;9.516;2023-12-07T00:45:56;2.70;99.90
47813;DHT22;34221;45.296;9.516;2023-12-07T00:46:12;2.60;99.90
47813;DHT22;34221;45.296;9.516;2023-12-07T00:46:26;2.60;99.90
47813;DHT22;34221;45.296;9.516;2023-12-07T00:46:41;2.60;99.90
47813;DHT22;34221;45.296;9.516;2023-12-07T00:46:56;2.60;99.90
47813;DHT22;34221;45.296;9.516;2023-12-07T00:47:11;2.60;99.90
47813;DHT22;34221;45.296;9.516;2023-12-07T00:47:25;2.60;99.90
47813;DHT22;34221;45.296;9.516;2023-12-07T00:47:40;2.60;99.90
47813;DHT22;34221;45.296;9.516;2023-12-07T00:47:55;2.60;99.90
47813;DHT22;34221;45.296;9.516;2023-12-07T00:48:09;2.60;99.90
47813;DHT22;34221;45.296;9.516;2023-12-07T00:48:24;2.60;99.90
47813;DHT22;34221;45.296;9.516;2023-12-07T00:48:39;2.60;99.90
47813;DHT22;34221;45.296;9.516;2023-12-07T00:48:54;2.60;99.90
47813;DHT22;34221;45.296;9.516;2023-12-07T00:49:09;2.60;99.90
47813;DHT22;34221;45.296;9.516;2023-12-07T00:49:24;2.60;99.90
47813;DHT22;34221;45.296;9.516;2023-12-07T00:49:39;2.60;99.90
47813;DHT22;34221;45.296;9.516;2023-12-07T00:49:55;2.60;99.90
47813;DHT22;34221;45.296;9.516;2023-12-07T00:50:12;2.60;99.90
47813;DHT22;34221;45.296;9.516;2023-12-07T00:50:28;2.60;99.90
47813;DHT22;34221;45.296;9.516;2023-12-07T00:50:43;2.60;99.90
47813;DHT22;34221;45.296;9.516;2023-12-07T00:50:58;2.60;99.90
47813;DHT22;34221;45.296;9.516;2023-12-07T00:51:13;2.60;99.90
47813;DHT22;34221;45.296;9.516;2023-12-07T00:51:28;2.60;99.90
47813;DHT22;34221;45.296;9.516;2023-12-07T00:51:43;2.60;99.90
47813;DHT22;34221;45.296;9.516;2023-12-07T00:51:57;2.60;99.90
47813;DHT22;34221;45.296;9.516;2023-12-07T00:52:12;2.60;99.90
47813;DHT22;34221;45.296;9.516;2023-12-07T00:52:27;2.50;99.90
47813;DHT22;34221;45.296;9.516;2023-12-07T00:52:42;2.60;99.90
47813;DHT22;34221;45.296;9.516;2023-12-07T00:52:56;2.60;99.90
47813;DHT22;34221;45.296;9.516;2023-12-07T00:53:11;2.60;99.90
47813;DHT22;34221;45.296;9.516;2023-12-07T00:53:26;2.50;99.90
47813;DHT22;34221;45.296;9.516;2023-12-07T00:53:41;2.50;99.90
47813;DHT22;34221;45.296;9.516;2023-12-07T00:53:56;2.50;99.90
47813;DHT22;34221;45.296;9.516;2023-12-07T00:54:11;2.50;99.90
47813;DHT22;34221;45.296;9.516;2023-12-07T00:54:26;2.50;99.90
47813;DHT22;34221;45.296;9.516;2023-12-07T00:54:40;2.50;99.90
47813;DHT22;34221;45.296;9.516;2023-12-07T00:54:55;2.50;99.90
47813;DHT22;34221;45.296;9.516;2023-12-07T00:55:10;2.50;99.90
47813;DHT22;34221;45.296;9.516;2023-12-07T00:55:25;2.50;99.90
47813;DHT22;34221;45.296;9.516;2023-12-07T00:55:40;2.50;99.90
47813;DHT22;34221;45.296;9.516;2023-12-07T00:55:54;2.50;99.90
47813;DHT22;34221;45.296;9.516;2023-12-07T00:56:09;2.40;99.90
47813;DHT22;34221;45.296;9.516;2023-12-07T00:56:24;2.40;99.90
47813;DHT22;34221;45.296;9.516;2023-12-07T00:56:39;2.40;99.90
47813;DHT22;34221;45.296;9.516;2023-12-07T00:56:54;2.30;99.90
47813;DHT22;34221;45.296;9.516;2023-12-07T00:57:08;2.30;99.90
47813;DHT22;34221;45.296;9.516;2023-12-07T00:57:23;2.30;99.90
47813;DHT22;34221;45.296;9.516;2023-12-07T00:57:38;2.20;99.90
47813;DHT22;34221;45.296;9.516;2023-12-07T00:57:53;2.20;99.90
47813;DHT22;34221;45.296;9.516;2023-12-07T00:58:07;2.10;99.90
47813;DHT22;34221;45.296;9.516;2023-12-07T00:58:22;2.10;99.90
47813;DHT22;34221;45.296;9.516;2023-12-07T00:58:37;2.10;99.90
47813;DHT22;34221;45.296;9.516;2023-12-07T00:58:53;2.10;99.90
47813;DHT22;34221;45.296;9.516;2023-12-07T00:59:07;2.00;99.90
47813;DHT22;34221;45.296;9.516;2023-12-07T00:59:22;2.00;99.90
47813;DHT22;34221;45.296;9.516;2023-12-07T00:59:37;2.00;99.90
47813;DHT22;34221;45.296;9.516;2023-12-07T00:59:51;2.00;99.90
47813;DHT22;34221;45.296;9.516;2023-12-07T01:00:07;2.00;99.90
47813;DHT22;34221;45.296;9.516;2023-12-07T01:00:22;2.00;99.90
47813;DHT22;34221;45.296;9.516;2023-12-07T01:00:37;1.90;99.90
47813;DHT22;34221;45.296;9.516;2023-12-07T01:00:52;1.90;99.90
47813;DHT22;34221;45.296;9.516;2023-12-07T01:01:06;1.90;99.90
47813;DHT22;34221;45.296;9.516;2023-12-07T01:01:21;1.90;99.90
47813;DHT22;34221;45.296;9.516;2023-12-07T01:01:36;1.90;99.90
47813;DHT22;34221;45.296;9.516;2023-12-07T01:01:53;1.90;99.90
47813;DHT22;34221;45.296;9.516;2023-12-07T01:02:07;1.90;99.90
47813;DHT22;34221;45.296;9.516;2023-12-07T01:02:22;1.90;99.90
47813;DHT22;34221;45.296;9.516;2023-12-07T01:02:37;1.90;99.90
47813;DHT22;34221;45.296;9.516;2023-12-07T01:02:52;1.90;99.90
47813;DHT22;34221;45.296;9.516;2023-12-07T01:03:06;1.80;99.90
47813;DHT22;34221;45.296;9.516;2023-12-07T01:03:21;1.80;99.90
47813;DHT22;34221;45.296;9.516;2023-12-07T01:03:36;1.90;99.90
47813;DHT22;34221;45.296;9.516;2023-12-07T01:03:50;1.90;99.90
47813;DHT22;34221;45.296;9.516;2023-12-07T01:04:05;1.80;99.90
47813;DHT22;34221;45.296;9.516;2023-12-07T01:04:20;1.80;99.90
47813;DHT22;34221;45.296;9.516;2023-12-07T01:04:35;1.80;99.90
47813;DHT22;34221;45.296;9.516;2023-12-07T01:04:49;1.80;99.90
47813;DHT22;34221;45.296;9.516;2023-12-07T01:05:04;1.80;99.90
47813;DHT22;34221;45.296;9.516;2023-12-07T01:05:20;1.80;99.90
47813;DHT22;34221;45.296;9.516;2023-12-07T01:05:35;1.80;99.90
47813;DHT22;34221;45.296;9.516;2023-12-07T01:05:49;1.80;99.90
47813;DHT22;34221;45.296;9.516;2023-12-07T01:06:04;1.80;99.90
47813;DHT22;34221;45.296;9.516;2023-12-07T01:06:19;1.80;99.90
47813;DHT22;34221;45.296;9.516;2023-12-07T01:06:34;1.80;99.90
47813;DHT22;34221;45.296;9.516;2023-12-07T01:06:48;1.80;99.90
47813;DHT22;34221;45.296;9.516;2023-12-07T01:07:03;1.80;99.90
47813;DHT22;34221;45.296;9.516;2023-12-07T01:07:18;1.80;99.90
47813;DHT22;34221;45.296;9.516;2023-12-07T01:07:33;1.80;99.90
47813;DHT22;34221;45.296;9.516;2023-12-07T01:07:47;1.80;99.90
47813;DHT22;34221;45.296;9.516;2023-12-07T01:08:02;1.80;99.90
47813;DHT22;34221;45.296;9.516;2023-12-07T01:08:17;1.80;99.90
47813;DHT22;34221;45.296;9.516;2023-12-07T01:08:32;1.80;99.90
47813;DHT22;34221;45.296;9.516;2023-12-07T01:08:47;1.80;99.90
47813;DHT22;34221;45.296;9.516;2023-12-07T01:09:02;1.80;99.90
47813;DHT22;34221;45.296;9.516;2023-12-07T01:09:18;1.80;99.90
47813;DHT22;34221;45.296;9.516;2023-12-07T01:09:33;1.80;99.90
47813;DHT22;34221;45.296;9.516;2023-12-07T01:09:48;1.80;99.90
47813;DHT22;34221;45.296;9.516;2023-12-07T01:10:02;1.80;99.90
47813;DHT22;34221;45.296;9.516;2023-12-07T01:10:19;1.80;99.90
47813;DHT22;34221;45.296;9.516;2023-12-07T01:10:33;1.70;99.90
47813;DHT22;34221;45.296;9.516;2023-12-07T01:10:48;1.70;99.90
47813;DHT22;34221;45.296;9.516;2023-12-07T01:11:04;1.70;99.90
47813;DHT22;34221;45.296;9.516;2023-12-07T01:11:18;1.70;99.90
47813;DHT22;34221;45.296;9.516;2023-12-07T01:11:33;1.70;99.90
47813;DHT22;34221;45.296;9.516;2023-12-07T01:11:49;1.70;99.90
47813;DHT22;34221;45.296;9.516;2023-12-07T01:12:04;1.70;99.90
47813;DHT22;34221;45.296;9.516;2023-12-07T01:12:18;1.70;99.90
47813;DHT22;34221;45.296;9.516;2023-12-07T01:12:33;1.70;99.90
47813;DHT22;34221;45.296;9.516;2023-12-07T01:12:50;1.70;99.90
47813;DHT22;34221;45.296;9.516;2023-12-07T01:13:04;1.70;99.90
47813;DHT22;34221;45.296;9.516;2023-12-07T01:13:20;1.70;99.90
47813;DHT22;34221;45.296;9.516;2023-12-07T01:13:34;1.70;99.90
47813;DHT22;34221;45.296;9.516;2023-12-07T01:13:50;1.70;99.90
47813;DHT22;34221;45.296;9.516;2023-12-07T01:14:05;1.70;99.90
47813;DHT22;34221;45.296;9.516;2023-12-07T01:14:19;1.70;99.90
47813;DHT22;34221;45.296;9.516;2023-12-07T01:14:34;1.70;99.90
47813;DHT22;34221;45.296;9.516;2023-12-07T01:14:49;1.70;99.90
47813;DHT22;34221;45.296;9.516;2023-12-07T01:15:04;1.60;99.90
47813;DHT22;34221;45.296;9.516;2023-12-07T01:15:19;1.60;99.90
47813;DHT22;34221;45.296;9.516;2023-12-07T01:15:34;1.60;99.90
47813;DHT22;34221;45.296;9.516;2023-12-07T01:15:48;1.60;99.90
47813;DHT22;34221;45.296;9.516;2023-12-07T01:16:03;1.60;99.90
47813;DHT22;34221;45.296;9.516;2023-12-07T01:16:18;1.60;99.90
47813;DHT22;34221;45.296;9.516;2023-12-07T01:16:33;1.60;99.90
47813;DHT22;34221;45.296;9.516;2023-12-07T01:16:47;1.60;99.90
47813;DHT22;34221;45.296;9.516;2023-12-07T01:17:02;1.60;99.90
47813;DHT22;34221;45.296;9.516;2023-12-07T01:17:17;1.60;99.90
47813;DHT22;34221;45.296;9.516;2023-12-07T01:17:32;1.60;99.90
47813;DHT22;34221;45.296;9.516;2023-12-07T01:17:47;1.60;99.90
47813;DHT22;34221;45.296;9.516;2023-12-07T01:18:01;1.60;99.90
47813;DHT22;34221;45.296;9.516;2023-12-07T01:18:16;1.60;99.90
47813;DHT22;34221;45.296;9.516;2023-12-07T01:18:31;1.60;99.90
47813;DHT22;34221;45.296;9.516;2023-12-07T01:18:46;1.50;99.90
47813;DHT22;34221;45.296;9.516;2023-12-07T01:19:00;1.60;99.90
47813;DHT22;34221;45.296;9.516;2023-12-07T01:19:15;1.60;99.90
47813;DHT22;34221;45.296;9.516;2023-12-07T01:19:30;1.50;99.90
47813;DHT22;34221;45.296;9.516;2023-12-07T01:19:44;1.50;99.90
47813;DHT22;34221;45.296;9.516;2023-12-07T01:19:59;1.50;99.90
47813;DHT22;34221;45.296;9.516;2023-12-07T01:20:14;1.50;99.90
47813;DHT22;34221;45.296;9.516;2023-12-07T01:20:29;1.50;99.90
47813;DHT22;34221;45.296;9.516;2023-12-07T01:20:44;1.50;99.90
47813;DHT22;34221;45.296;9.516;2023-12-07T01:20:58;1.50;99.90
47813;DHT22;34221;45.296;9.516;2023-12-07T01:21:13;1.50;99.90
47813;DHT22;34221;45.296;9.516;2023-12-07T01:21:28;1.50;99.90
47813;DHT22;34221;45.296;9.516;2023-12-07T01:21:43;1.40;99.90
47813;DHT22;34221;45.296;9.516;2023-12-07T01:21:57;1.40;99.90
47813;DHT22;34221;45.296;9.516;2023-12-07T01:22:12;1.40;99.90
47813;DHT22;34221;45.296;9.516;2023-12-07T01:22:27;1.40;99.90
47813;DHT22;34221;45.296;9.516;2023-12-07T01:22:42;1.30;99.90
47813;DHT22;34221;45.296;9.516;2023-12-07T01:22:57;1.30;99.90
47813;DHT22;34221;45.296;9.516;2023-12-07T01:23:11;1.30;99.90
47813;DHT22;34221;45.296;9.516;2023-12-07T01:23:26;1.30;99.90
47813;DHT22;34221;45.296;9.516;2023-12-07T01:23:41;1.30;99.90
47813;DHT22;34221;45.296;9.516;2023-12-07T01:23:56;1.30;99.90
47813;DHT22;34221;45.296;9.516;2023-12-07T01:24:12;1.30;99.90
47813;DHT22;34221;45.296;9.516;2023-12-07T01:24:27;1.30;99.90
47813;DHT22;34221;45.296;9.516;2023-12-07T01:24:43;1.30;99.90
47813;DHT22;34221;45.296;9.516;2023-12-07T01:24:58;1.20;99.90
47813;DHT22;34221;45.296;9.516;2023-12-07T01:25:13;1.20;99.90
47813;DHT22;34221;45.296;9.516;2023-12-07T01:25:35;1.20;99.90
47813;DHT22;34221;45.296;9.516;2023-12-07T01:25:50;1.30;99.90
47813;DHT22;34221;45.296;9.516;2023-12-07T01:26:05;1.20;99.90
47813;DHT22;34221;45.296;9.516;2023-12-07T01:26:21;1.20;99.90
47813;DHT22;34221;45.296;9.516;2023-12-07T01:27:11;1.20;99.90
47813;DHT22;34221;45.296;9.516;2023-12-07T01:27:25;1.20;99.90
47813;DHT22;34221;45.296;9.516;2023-12-07T01:27:40;1.20;99.90
47813;DHT22;34221;45.296;9.516;2023-12-07T01:27:55;1.20;99.90
47813;DHT22;34221;45.296;9.516;2023-12-07T01:28:09;1.30;99.90
47813;DHT22;34221;45.296;9.516;2023-12-07T01:28:24;1.20;99.90
47813;DHT22;34221;45.296;9.516;2023-12-07T01:28:39;1.30;99.90
47813;DHT22;34221;45.296;9.516;2023-12-07T01:28:54;1.20;99.90
47813;DHT22;34221;45.296;9.516;2023-12-07T01:29:08;1.30;99.90
47813;DHT22;34221;45.296;9.516;2023-12-07T01:29:23;1.20;99.90
47813;DHT22;34221;45.296;9.516;2023-12-07T01:29:38;1.30;99.90
47813;DHT22;34221;45.296;9.516;2023-12-07T01:29:53;1.20;99.90
47813;DHT22;34221;45.296;9.516;2023-12-07T01:30:08;1.30;99.90
47813;DHT22;34221;45.296;9.516;2023-12-07T01:30:23;1.30;99.90
47813;DHT22;34221;45.296;9.516;2023-12-07T01:30:37;1.30;99.90
47813;DHT22;34221;45.296;9.516;2023-12-07T01:30:52;1.30;99.90
47813;DHT22;34221;45.296;9.516;2023-12-07T01:31:07;1.30;99.90
47813;DHT22;34221;45.296;9.516;2023-12-07T01:31:22;1.30;99.90
47813;DHT22;34221;45.296;9.516;2023-12-07T01:31:36;1.30;99.90
47813;DHT22;34221;45.296;9.516;2023-12-07T01:31:51;1.30;99.90
47813;DHT22;34221;45.296;9.516;2023-12-07T01:32:06;1.30;99.90
47813;DHT22;34221;45.296;9.516;2023-12-07T01:32:21;1.30;99.90
47813;DHT22;34221;45.296;9.516;2023-12-07T01:32:36;1.30;99.90
47813;DHT22;34221;45.296;9.516;2023-12-07T01:32:51;1.30;99.90
47813;DHT22;34221;45.296;9.516;2023-12-07T01:33:05;1.30;99.90
47813;DHT22;34221;45.296;9.516;2023-12-07T01:33:20;1.30;99.90
47813;DHT22;34221;45.296;9.516;2023-12-07T01:33:36;1.30;99.90
47813;DHT22;34221;45.296;9.516;2023-12-07T01:33:51;1.30;99.90
47813;DHT22;34221;45.296;9.516;2023-12-07T01:34:05;1.30;99.90
47813;DHT22;34221;45.296;9.516;2023-12-07T01:34:20;1.30;99.90
47813;DHT22;34221;45.296;9.516;2023-12-07T01:34:35;1.30;99.90
47813;DHT22;34221;45.296;9.516;2023-12-07T01:34:50;1.30;99.90
47813;DHT22;34221;45.296;9.516;2023-12-07T01:35:05;1.30;99.90
47813;DHT22;34221;45.296;9.516;2023-12-07T01:35:20;1.30;99.90
47813;DHT22;34221;45.296;9.516;2023-12-07T01:35:34;1.30;99.90
47813;DHT22;34221;45.296;9.516;2023-12-07T01:35:49;1.40;99.90
47813;DHT22;34221;45.296;9.516;2023-12-07T01:36:04;1.30;99.90
47813;DHT22;34221;45.296;9.516;2023-12-07T01:36:19;1.40;99.90
47813;DHT22;34221;45.296;9.516;2023-12-07T01:36:34;1.40;99.90